Terminal Aerodrome Forecast
Issued by NWS

Home | Current Version | Previous Version | Text Only | Print | Product List | Glossary On
Versions: 1 2 3 4 5 6 7 8 9 10 11 12 13 14 15
000
FTUS46 KSEW 041724
TAFCLM
TAF
KCLM 041724Z 0418/0518 32006KT P6SM SCT050 SCT200
     FM042200 30012KT P6SM SCT200
     FM050000 30014G22KT P6SM SCT200
     FM050600 29012KT P6SM BKN015=

USA.gov is the U.S. government's official web portal to all federal, state and local government web resources and services.